sensor_id;sensor_type;location;lat;lon;timestamp;P1;durP1;ratioP1;P2;durP2;ratioP2
27895;SDS011;15241;48.374;10.876;2022-08-30T00:02:08;13.20;;;9.88;;
27895;SDS011;15241;48.374;10.876;2022-08-30T00:07:07;10.05;;;8.35;;
27895;SDS011;15241;48.374;10.876;2022-08-30T00:12:06;12.25;;;9.88;;
27895;SDS011;15241;48.374;10.876;2022-08-30T00:17:05;14.10;;;9.13;;
27895;SDS011;15241;48.374;10.876;2022-08-30T00:22:04;10.68;;;9.13;;
27895;SDS011;15241;48.374;10.876;2022-08-30T00:27:03;11.22;;;9.95;;
27895;SDS011;15241;48.374;10.876;2022-08-30T00:32:03;10.45;;;9.35;;
27895;SDS011;15241;48.374;10.876;2022-08-30T00:37:02;12.93;;;9.53;;
27895;SDS011;15241;48.374;10.876;2022-08-30T00:42:01;11.68;;;10.18;;
27895;SDS011;15241;48.374;10.876;2022-08-30T00:47:01;10.88;;;9.48;;
27895;SDS011;15241;48.374;10.876;2022-08-30T00:52:00;10.38;;;9.20;;
27895;SDS011;15241;48.374;10.876;2022-08-30T00:57:01;11.40;;;8.85;;
27895;SDS011;15241;48.374;10.876;2022-08-30T01:02:00;11.75;;;9.33;;
27895;SDS011;15241;48.374;10.876;2022-08-30T01:07:00;12.80;;;9.00;;
27895;SDS011;15241;48.374;10.876;2022-08-30T01:11:59;10.78;;;9.68;;
27895;SDS011;15241;48.374;10.876;2022-08-30T01:16:58;11.18;;;8.65;;
27895;SDS011;15241;48.374;10.876;2022-08-30T01:21:59;9.85;;;8.85;;
27895;SDS011;15241;48.374;10.876;2022-08-30T01:27:01;11.70;;;9.18;;
27895;SDS011;15241;48.374;10.876;2022-08-30T01:32:00;10.63;;;9.30;;
27895;SDS011;15241;48.374;10.876;2022-08-30T01:37:00;10.00;;;8.88;;
27895;SDS011;15241;48.374;10.876;2022-08-30T01:41:59;11.45;;;9.10;;
27895;SDS011;15241;48.374;10.876;2022-08-30T01:46:59;11.45;;;9.80;;
27895;SDS011;15241;48.374;10.876;2022-08-30T01:51:58;12.05;;;8.90;;
27895;SDS011;15241;48.374;10.876;2022-08-30T01:56:57;12.53;;;9.55;;
27895;SDS011;15241;48.374;10.876;2022-08-30T02:01:56;10.45;;;9.35;;
27895;SDS011;15241;48.374;10.876;2022-08-30T02:06:55;11.75;;;8.65;;
27895;SDS011;15241;48.374;10.876;2022-08-30T02:11:54;10.08;;;8.65;;
27895;SDS011;15241;48.374;10.876;2022-08-30T02:16:53;10.72;;;9.08;;
27895;SDS011;15241;48.374;10.876;2022-08-30T02:21:52;8.40;;;7.42;;
27895;SDS011;15241;48.374;10.876;2022-08-30T02:26:51;9.33;;;7.60;;
27895;SDS011;15241;48.374;10.876;2022-08-30T02:31:50;11.40;;;8.38;;
27895;SDS011;15241;48.374;10.876;2022-08-30T02:36:49;8.45;;;7.53;;
27895;SDS011;15241;48.374;10.876;2022-08-30T02:41:48;11.22;;;7.78;;
27895;SDS011;15241;48.374;10.876;2022-08-30T02:46:47;11.18;;;7.22;;
27895;SDS011;15241;48.374;10.876;2022-08-30T02:51:46;9.08;;;7.30;;
27895;SDS011;15241;48.374;10.876;2022-08-30T02:56:45;11.08;;;7.28;;
27895;SDS011;15241;48.374;10.876;2022-08-30T03:01:44;8.20;;;6.83;;
27895;SDS011;15241;48.374;10.876;2022-08-30T03:06:43;9.30;;;7.08;;
27895;SDS011;15241;48.374;10.876;2022-08-30T03:11:42;9.30;;;7.03;;
27895;SDS011;15241;48.374;10.876;2022-08-30T03:16:41;9.40;;;7.45;;
27895;SDS011;15241;48.374;10.876;2022-08-30T03:21:40;11.90;;;7.67;;
27895;SDS011;15241;48.374;10.876;2022-08-30T03:26:39;8.40;;;7.55;;
27895;SDS011;15241;48.374;10.876;2022-08-30T03:31:38;11.12;;;7.50;;
27895;SDS011;15241;48.374;10.876;2022-08-30T03:36:37;11.43;;;7.10;;
27895;SDS011;15241;48.374;10.876;2022-08-30T03:41:36;9.10;;;8.10;;
27895;SDS011;15241;48.374;10.876;2022-08-30T03:46:35;9.98;;;8.03;;
27895;SDS011;15241;48.374;10.876;2022-08-30T03:51:34;13.53;;;9.25;;
27895;SDS011;15241;48.374;10.876;2022-08-30T03:56:33;13.13;;;9.10;;
27895;SDS011;15241;48.374;10.876;2022-08-30T04:01:32;12.85;;;8.83;;
27895;SDS011;15241;48.374;10.876;2022-08-30T04:06:30;13.98;;;8.90;;
27895;SDS011;15241;48.374;10.876;2022-08-30T04:11:30;13.75;;;9.10;;
27895;SDS011;15241;48.374;10.876;2022-08-30T04:16:29;11.08;;;8.60;;
27895;SDS011;15241;48.374;10.876;2022-08-30T04:21:28;15.93;;;8.95;;
27895;SDS011;15241;48.374;10.876;2022-08-30T04:26:27;10.40;;;8.23;;
27895;SDS011;15241;48.374;10.876;2022-08-30T04:31:26;12.68;;;9.03;;
27895;SDS011;15241;48.374;10.876;2022-08-30T04:36:25;13.58;;;8.25;;
27895;SDS011;15241;48.374;10.876;2022-08-30T04:41:24;15.60;;;8.75;;
27895;SDS011;15241;48.374;10.876;2022-08-30T04:46:23;13.13;;;8.50;;
27895;SDS011;15241;48.374;10.876;2022-08-30T04:51:22;13.00;;;8.23;;
27895;SDS011;15241;48.374;10.876;2022-08-30T04:56:21;10.00;;;8.63;;
27895;SDS011;15241;48.374;10.876;2022-08-30T05:01:21;12.85;;;9.15;;
27895;SDS011;15241;48.374;10.876;2022-08-30T05:06:22;13.28;;;8.95;;
27895;SDS011;15241;48.374;10.876;2022-08-30T05:11:23;14.20;;;9.00;;
27895;SDS011;15241;48.374;10.876;2022-08-30T05:16:22;13.30;;;9.15;;
27895;SDS011;15241;48.374;10.876;2022-08-30T05:21:22;14.80;;;9.63;;
27895;SDS011;15241;48.374;10.876;2022-08-30T05:26:24;15.60;;;9.10;;
27895;SDS011;15241;48.374;10.876;2022-08-30T05:31:32;13.95;;;10.38;;
27895;SDS011;15241;48.374;10.876;2022-08-30T05:36:32;19.00;;;11.78;;
27895;SDS011;15241;48.374;10.876;2022-08-30T05:41:32;14.13;;;9.13;;
27895;SDS011;15241;48.374;10.876;2022-08-30T05:46:31;13.80;;;9.30;;
27895;SDS011;15241;48.374;10.876;2022-08-30T05:51:32;12.73;;;9.70;;
27895;SDS011;15241;48.374;10.876;2022-08-30T05:56:33;14.70;;;10.90;;
27895;SDS011;15241;48.374;10.876;2022-08-30T06:01:34;13.78;;;9.28;;
27895;SDS011;15241;48.374;10.876;2022-08-30T06:06:35;12.20;;;10.18;;
27895;SDS011;15241;48.374;10.876;2022-08-30T06:11:36;13.20;;;10.48;;
27895;SDS011;15241;48.374;10.876;2022-08-30T06:16:36;15.23;;;11.28;;
27895;SDS011;15241;48.374;10.876;2022-08-30T06:21:35;19.25;;;12.82;;
27895;SDS011;15241;48.374;10.876;2022-08-30T06:26:36;17.30;;;12.65;;
27895;SDS011;15241;48.374;10.876;2022-08-30T06:31:36;15.72;;;12.70;;
27895;SDS011;15241;48.374;10.876;2022-08-30T06:36:36;15.35;;;12.03;;
27895;SDS011;15241;48.374;10.876;2022-08-30T06:41:36;17.45;;;12.68;;
27895;SDS011;15241;48.374;10.876;2022-08-30T06:46:36;18.75;;;13.25;;
27895;SDS011;15241;48.374;10.876;2022-08-30T06:51:36;20.30;;;12.50;;
27895;SDS011;15241;48.374;10.876;2022-08-30T06:56:36;19.45;;;12.65;;
27895;SDS011;15241;48.374;10.876;2022-08-30T07:01:35;17.40;;;12.70;;
27895;SDS011;15241;48.374;10.876;2022-08-30T07:06:34;16.00;;;12.25;;
27895;SDS011;15241;48.374;10.876;2022-08-30T07:11:34;18.67;;;13.93;;
27895;SDS011;15241;48.374;10.876;2022-08-30T07:16:34;15.30;;;13.38;;
27895;SDS011;15241;48.374;10.876;2022-08-30T07:21:33;13.35;;;11.30;;
27895;SDS011;15241;48.374;10.876;2022-08-30T07:26:34;16.55;;;11.53;;
27895;SDS011;15241;48.374;10.876;2022-08-30T07:31:34;15.03;;;11.75;;
27895;SDS011;15241;48.374;10.876;2022-08-30T07:36:34;17.35;;;12.13;;
27895;SDS011;15241;48.374;10.876;2022-08-30T07:41:35;20.88;;;14.15;;
27895;SDS011;15241;48.374;10.876;2022-08-30T07:46:35;14.87;;;11.95;;
27895;SDS011;15241;48.374;10.876;2022-08-30T07:51:35;13.03;;;10.90;;
27895;SDS011;15241;48.374;10.876;2022-08-30T07:56:34;11.12;;;9.63;;
27895;SDS011;15241;48.374;10.876;2022-08-30T08:01:33;11.88;;;8.98;;
27895;SDS011;15241;48.374;10.876;2022-08-30T08:06:36;10.15;;;9.10;;
27895;SDS011;15241;48.374;10.876;2022-08-30T08:11:35;9.93;;;8.20;;
27895;SDS011;15241;48.374;10.876;2022-08-30T08:16:34;9.08;;;7.87;;
27895;SDS011;15241;48.374;10.876;2022-08-30T08:21:34;9.93;;;7.37;;
27895;SDS011;15241;48.374;10.876;2022-08-30T08:26:34;8.55;;;6.87;;
27895;SDS011;15241;48.374;10.876;2022-08-30T08:31:33;8.10;;;7.28;;
27895;SDS011;15241;48.374;10.876;2022-08-30T08:41:35;10.70;;;7.05;;
27895;SDS011;15241;48.374;10.876;2022-08-30T08:46:40;8.03;;;6.55;;
27895;SDS011;15241;48.374;10.876;2022-08-30T08:56:40;9.78;;;6.85;;
27895;SDS011;15241;48.374;10.876;2022-08-30T09:01:39;8.68;;;5.97;;
27895;SDS011;15241;48.374;10.876;2022-08-30T09:06:41;8.55;;;6.17;;
27895;SDS011;15241;48.374;10.876;2022-08-30T09:11:46;6.97;;;6.12;;
27895;SDS011;15241;48.374;10.876;2022-08-30T09:16:47;9.78;;;6.67;;
27895;SDS011;15241;48.374;10.876;2022-08-30T09:21:55;8.30;;;6.40;;
27895;SDS011;15241;48.374;10.876;2022-08-30T09:26:55;7.10;;;5.80;;
27895;SDS011;15241;48.374;10.876;2022-08-30T09:31:55;6.35;;;5.62;;
27895;SDS011;15241;48.374;10.876;2022-08-30T09:36:55;5.90;;;4.90;;
27895;SDS011;15241;48.374;10.876;2022-08-30T09:41:55;5.67;;;5.00;;
27895;SDS011;15241;48.374;10.876;2022-08-30T09:47:17;5.40;;;4.97;;
27895;SDS011;15241;48.374;10.876;2022-08-30T09:52:21;5.60;;;4.92;;
27895;SDS011;15241;48.374;10.876;2022-08-30T09:57:27;9.13;;;4.75;;
27895;SDS011;15241;48.374;10.876;2022-08-30T10:02:38;8.70;;;4.75;;
27895;SDS011;15241;48.374;10.876;2022-08-30T10:07:44;6.30;;;4.42;;
27895;SDS011;15241;48.374;10.876;2022-08-30T10:12:48;5.40;;;4.90;;
27895;SDS011;15241;48.374;10.876;2022-08-30T10:17:49;5.55;;;4.33;;
27895;SDS011;15241;48.374;10.876;2022-08-30T10:22:51;5.03;;;4.40;;
27895;SDS011;15241;48.374;10.876;2022-08-30T10:27:54;8.30;;;5.37;;
27895;SDS011;15241;48.374;10.876;2022-08-30T10:32:57;6.72;;;4.90;;
27895;SDS011;15241;48.374;10.876;2022-08-30T10:38:00;5.25;;;4.75;;
27895;SDS011;15241;48.374;10.876;2022-08-30T10:43:03;6.92;;;5.12;;
27895;SDS011;15241;48.374;10.876;2022-08-30T10:48:06;4.75;;;4.35;;
27895;SDS011;15241;48.374;10.876;2022-08-30T10:53:08;4.78;;;4.25;;
27895;SDS011;15241;48.374;10.876;2022-08-30T10:58:09;4.83;;;4.30;;
27895;SDS011;15241;48.374;10.876;2022-08-30T11:03:33;5.45;;;4.65;;
27895;SDS011;15241;48.374;10.876;2022-08-30T11:08:40;4.83;;;3.70;;
27895;SDS011;15241;48.374;10.876;2022-08-30T11:13:53;4.05;;;3.65;;
27895;SDS011;15241;48.374;10.876;2022-08-30T11:18:54;4.42;;;3.70;;
27895;SDS011;15241;48.374;10.876;2022-08-30T11:24:01;4.10;;;3.70;;
27895;SDS011;15241;48.374;10.876;2022-08-30T11:29:04;5.17;;;3.70;;
27895;SDS011;15241;48.374;10.876;2022-08-30T11:34:04;4.17;;;3.70;;
27895;SDS011;15241;48.374;10.876;2022-08-30T11:39:04;4.22;;;3.80;;
27895;SDS011;15241;48.374;10.876;2022-08-30T11:44:12;5.83;;;3.55;;
27895;SDS011;15241;48.374;10.876;2022-08-30T11:49:35;3.98;;;3.60;;
27895;SDS011;15241;48.374;10.876;2022-08-30T11:54:41;4.60;;;3.67;;
27895;SDS011;15241;48.374;10.876;2022-08-30T11:59:48;6.17;;;3.45;;
27895;SDS011;15241;48.374;10.876;2022-08-30T12:04:58;4.33;;;3.90;;
27895;SDS011;15241;48.374;10.876;2022-08-30T12:09:58;5.62;;;3.67;;
27895;SDS011;15241;48.374;10.876;2022-08-30T12:14:58;5.28;;;3.87;;
27895;SDS011;15241;48.374;10.876;2022-08-30T12:19:57;4.72;;;4.03;;
27895;SDS011;15241;48.374;10.876;2022-08-30T12:24:56;6.00;;;3.42;;
27895;SDS011;15241;48.374;10.876;2022-08-30T12:29:56;7.40;;;3.40;;
27895;SDS011;15241;48.374;10.876;2022-08-30T12:34:56;5.08;;;3.60;;
27895;SDS011;15241;48.374;10.876;2022-08-30T12:40:01;7.60;;;3.87;;
27895;SDS011;15241;48.374;10.876;2022-08-30T12:45:03;3.90;;;3.60;;
27895;SDS011;15241;48.374;10.876;2022-08-30T12:50:05;5.85;;;3.77;;
27895;SDS011;15241;48.374;10.876;2022-08-30T12:55:11;3.70;;;3.40;;
27895;SDS011;15241;48.374;10.876;2022-08-30T13:00:10;4.78;;;3.40;;
27895;SDS011;15241;48.374;10.876;2022-08-30T13:05:28;5.05;;;4.53;;
27895;SDS011;15241;48.374;10.876;2022-08-30T13:10:51;4.85;;;4.12;;
27895;SDS011;15241;48.374;10.876;2022-08-30T13:15:51;3.77;;;3.47;;
27895;SDS011;15241;48.374;10.876;2022-08-30T13:20:50;5.80;;;4.17;;
27895;SDS011;15241;48.374;10.876;2022-08-30T13:26:07;4.20;;;3.40;;
27895;SDS011;15241;48.374;10.876;2022-08-30T13:31:05;4.28;;;3.87;;
27895;SDS011;15241;48.374;10.876;2022-08-30T13:36:04;4.08;;;3.67;;
27895;SDS011;15241;48.374;10.876;2022-08-30T13:41:04;7.08;;;3.37;;
27895;SDS011;15241;48.374;10.876;2022-08-30T13:46:03;21.10;;;14.55;;
27895;SDS011;15241;48.374;10.876;2022-08-30T13:51:03;6.78;;;5.78;;
27895;SDS011;15241;48.374;10.876;2022-08-30T13:56:03;4.97;;;4.28;;
27895;SDS011;15241;48.374;10.876;2022-08-30T14:01:03;6.08;;;3.87;;
27895;SDS011;15241;48.374;10.876;2022-08-30T14:06:02;4.97;;;4.20;;
27895;SDS011;15241;48.374;10.876;2022-08-30T14:11:01;5.30;;;4.25;;
27895;SDS011;15241;48.374;10.876;2022-08-30T14:16:03;4.37;;;3.98;;
27895;SDS011;15241;48.374;10.876;2022-08-30T14:21:03;6.35;;;5.25;;
27895;SDS011;15241;48.374;10.876;2022-08-30T14:26:02;6.53;;;3.40;;
27895;SDS011;15241;48.374;10.876;2022-08-30T14:31:07;6.40;;;4.83;;
27895;SDS011;15241;48.374;10.876;2022-08-30T14:36:07;5.28;;;4.78;;
27895;SDS011;15241;48.374;10.876;2022-08-30T14:41:06;8.00;;;5.30;;
27895;SDS011;15241;48.374;10.876;2022-08-30T14:46:13;4.37;;;3.95;;
27895;SDS011;15241;48.374;10.876;2022-08-30T14:51:13;5.15;;;3.87;;
27895;SDS011;15241;48.374;10.876;2022-08-30T14:56:14;4.08;;;3.60;;
27895;SDS011;15241;48.374;10.876;2022-08-30T15:01:14;5.92;;;3.60;;
27895;SDS011;15241;48.374;10.876;2022-08-30T15:06:13;3.55;;;3.30;;
27895;SDS011;15241;48.374;10.876;2022-08-30T15:11:13;5.30;;;3.52;;
27895;SDS011;15241;48.374;10.876;2022-08-30T15:21:20;4.50;;;3.77;;
27895;SDS011;15241;48.374;10.876;2022-08-30T15:26:19;5.47;;;3.65;;
27895;SDS011;15241;48.374;10.876;2022-08-30T15:31:18;3.87;;;3.58;;
27895;SDS011;15241;48.374;10.876;2022-08-30T15:36:19;7.90;;;3.83;;
27895;SDS011;15241;48.374;10.876;2022-08-30T15:41:18;3.80;;;3.50;;
27895;SDS011;15241;48.374;10.876;2022-08-30T15:46:19;4.15;;;3.75;;
27895;SDS011;15241;48.374;10.876;2022-08-30T15:51:19;4.20;;;3.80;;
27895;SDS011;15241;48.374;10.876;2022-08-30T15:56:18;4.62;;;4.20;;
27895;SDS011;15241;48.374;10.876;2022-08-30T16:06:24;5.17;;;3.77;;
27895;SDS011;15241;48.374;10.876;2022-08-30T16:11:24;6.15;;;4.25;;
27895;SDS011;15241;48.374;10.876;2022-08-30T16:16:24;7.25;;;3.62;;
27895;SDS011;15241;48.374;10.876;2022-08-30T16:21:24;6.08;;;3.67;;
27895;SDS011;15241;48.374;10.876;2022-08-30T16:26:24;4.10;;;3.75;;
27895;SDS011;15241;48.374;10.876;2022-08-30T16:31:25;4.20;;;3.80;;
27895;SDS011;15241;48.374;10.876;2022-08-30T16:36:25;4.00;;;3.70;;
27895;SDS011;15241;48.374;10.876;2022-08-30T16:41:25;5.17;;;4.60;;
27895;SDS011;15241;48.374;10.876;2022-08-30T16:46:24;4.95;;;4.22;;
27895;SDS011;15241;48.374;10.876;2022-08-30T16:51:23;5.00;;;4.60;;
27895;SDS011;15241;48.374;10.876;2022-08-30T16:56:24;5.05;;;4.65;;
27895;SDS011;15241;48.374;10.876;2022-08-30T17:01:25;5.10;;;4.60;;
27895;SDS011;15241;48.374;10.876;2022-08-30T17:06:24;7.42;;;4.67;;
27895;SDS011;15241;48.374;10.876;2022-08-30T17:11:25;6.42;;;4.72;;
27895;SDS011;15241;48.374;10.876;2022-08-30T17:16:24;7.08;;;4.95;;
27895;SDS011;15241;48.374;10.876;2022-08-30T17:21:23;5.62;;;5.10;;
27895;SDS011;15241;48.374;10.876;2022-08-30T17:26:22;7.40;;;5.67;;
27895;SDS011;15241;48.374;10.876;2022-08-30T17:31:21;8.90;;;5.92;;
27895;SDS011;15241;48.374;10.876;2022-08-30T17:36:20;7.65;;;5.87;;
27895;SDS011;15241;48.374;10.876;2022-08-30T17:41:19;8.80;;;5.78;;
27895;SDS011;15241;48.374;10.876;2022-08-30T17:46:18;6.25;;;5.62;;
27895;SDS011;15241;48.374;10.876;2022-08-30T17:51:17;7.40;;;5.75;;
27895;SDS011;15241;48.374;10.876;2022-08-30T17:56:16;12.05;;;5.75;;
27895;SDS011;15241;48.374;10.876;2022-08-30T18:01:16;7.55;;;5.97;;
27895;SDS011;15241;48.374;10.876;2022-08-30T18:06:16;8.23;;;5.92;;
27895;SDS011;15241;48.374;10.876;2022-08-30T18:11:15;11.05;;;6.87;;
27895;SDS011;15241;48.374;10.876;2022-08-30T18:16:14;7.62;;;6.20;;
27895;SDS011;15241;48.374;10.876;2022-08-30T18:21:13;7.72;;;6.30;;
27895;SDS011;15241;48.374;10.876;2022-08-30T18:26:13;9.38;;;6.78;;
27895;SDS011;15241;48.374;10.876;2022-08-30T18:31:12;9.45;;;6.72;;
27895;SDS011;15241;48.374;10.876;2022-08-30T18:36:11;7.42;;;6.62;;
27895;SDS011;15241;48.374;10.876;2022-08-30T18:41:11;9.03;;;7.62;;
27895;SDS011;15241;48.374;10.876;2022-08-30T18:46:11;9.65;;;7.33;;
27895;SDS011;15241;48.374;10.876;2022-08-30T18:51:12;10.23;;;7.00;;
27895;SDS011;15241;48.374;10.876;2022-08-30T18:56:13;9.10;;;7.62;;
27895;SDS011;15241;48.374;10.876;2022-08-30T19:01:13;11.65;;;7.53;;
27895;SDS011;15241;48.374;10.876;2022-08-30T19:06:12;7.97;;;6.97;;
27895;SDS011;15241;48.374;10.876;2022-08-30T19:11:11;13.08;;;7.47;;
27895;SDS011;15241;48.374;10.876;2022-08-30T19:16:10;11.25;;;8.33;;
27895;SDS011;15241;48.374;10.876;2022-08-30T19:21:09;9.55;;;8.05;;
27895;SDS011;15241;48.374;10.876;2022-08-30T19:26:08;9.10;;;8.20;;
27895;SDS011;15241;48.374;10.876;2022-08-30T19:31:07;8.63;;;7.75;;
27895;SDS011;15241;48.374;10.876;2022-08-30T19:36:07;9.38;;;8.43;;
27895;SDS011;15241;48.374;10.876;2022-08-30T19:41:06;13.68;;;8.95;;
27895;SDS011;15241;48.374;10.876;2022-08-30T19:46:05;9.45;;;8.45;;
27895;SDS011;15241;48.374;10.876;2022-08-30T19:51:05;13.58;;;9.95;;
27895;SDS011;15241;48.374;10.876;2022-08-30T19:56:05;11.30;;;9.50;;
27895;SDS011;15241;48.374;10.876;2022-08-30T20:01:04;10.70;;;9.08;;
27895;SDS011;15241;48.374;10.876;2022-08-30T20:06:03;11.55;;;7.87;;
27895;SDS011;15241;48.374;10.876;2022-08-30T20:11:03;11.00;;;9.23;;
27895;SDS011;15241;48.374;10.876;2022-08-30T20:16:02;10.82;;;9.55;;
27895;SDS011;15241;48.374;10.876;2022-08-30T20:21:02;10.55;;;8.15;;
27895;SDS011;15241;48.374;10.876;2022-08-30T20:26:02;12.13;;;8.28;;
27895;SDS011;15241;48.374;10.876;2022-08-30T20:31:01;9.73;;;6.47;;
27895;SDS011;15241;48.374;10.876;2022-08-30T20:36:02;9.00;;;7.65;;
27895;SDS011;15241;48.374;10.876;2022-08-30T20:41:06;9.20;;;7.47;;
27895;SDS011;15241;48.374;10.876;2022-08-30T20:46:14;10.90;;;7.50;;
27895;SDS011;15241;48.374;10.876;2022-08-30T20:51:15;8.75;;;6.80;;
27895;SDS011;15241;48.374;10.876;2022-08-30T20:56:17;8.05;;;6.95;;
27895;SDS011;15241;48.374;10.876;2022-08-30T21:01:17;10.32;;;7.00;;
27895;SDS011;15241;48.374;10.876;2022-08-30T21:06:16;8.88;;;6.83;;
27895;SDS011;15241;48.374;10.876;2022-08-30T21:11:15;8.15;;;6.62;;
27895;SDS011;15241;48.374;10.876;2022-08-30T21:16:15;13.18;;;7.20;;
27895;SDS011;15241;48.374;10.876;2022-08-30T21:21:15;9.30;;;6.90;;
27895;SDS011;15241;48.374;10.876;2022-08-30T21:26:16;7.95;;;5.92;;
27895;SDS011;15241;48.374;10.876;2022-08-30T21:31:17;8.10;;;6.15;;
27895;SDS011;15241;48.374;10.876;2022-08-30T21:36:17;10.55;;;6.70;;
27895;SDS011;15241;48.374;10.876;2022-08-30T21:41:17;10.85;;;5.72;;
27895;SDS011;15241;48.374;10.876;2022-08-30T21:46:16;9.63;;;6.10;;
27895;SDS011;15241;48.374;10.876;2022-08-30T21:51:15;7.42;;;6.28;;
27895;SDS011;15241;48.374;10.876;2022-08-30T21:56:15;9.80;;;6.17;;
27895;SDS011;15241;48.374;10.876;2022-08-30T22:01:17;7.03;;;6.30;;
27895;SDS011;15241;48.374;10.876;2022-08-30T22:06:17;9.50;;;6.25;;
27895;SDS011;15241;48.374;10.876;2022-08-30T22:11:16;9.68;;;5.80;;
27895;SDS011;15241;48.374;10.876;2022-08-30T22:16:17;7.70;;;5.80;;
27895;SDS011;15241;48.374;10.876;2022-08-30T22:21:17;6.00;;;5.42;;
27895;SDS011;15241;48.374;10.876;2022-08-30T22:26:18;6.30;;;5.53;;
27895;SDS011;15241;48.374;10.876;2022-08-30T22:31:19;12.60;;;5.62;;
27895;SDS011;15241;48.374;10.876;2022-08-30T22:36:20;8.83;;;5.25;;
27895;SDS011;15241;48.374;10.876;2022-08-30T22:41:21;7.42;;;5.50;;
27895;SDS011;15241;48.374;10.876;2022-08-30T22:46:22;5.95;;;5.35;;
27895;SDS011;15241;48.374;10.876;2022-08-30T22:51:21;8.35;;;5.72;;
27895;SDS011;15241;48.374;10.876;2022-08-30T22:56:20;11.28;;;5.22;;
27895;SDS011;15241;48.374;10.876;2022-08-30T23:01:22;6.95;;;5.35;;
27895;SDS011;15241;48.374;10.876;2022-08-30T23:06:22;7.05;;;5.30;;
27895;SDS011;15241;48.374;10.876;2022-08-30T23:11:22;6.95;;;5.85;;
27895;SDS011;15241;48.374;10.876;2022-08-30T23:16:21;7.72;;;5.78;;
27895;SDS011;15241;48.374;10.876;2022-08-30T23:21:21;7.08;;;5.28;;
27895;SDS011;15241;48.374;10.876;2022-08-30T23:26:21;7.22;;;6.25;;
27895;SDS011;15241;48.374;10.876;2022-08-30T23:31:20;8.63;;;6.17;;
27895;SDS011;15241;48.374;10.876;2022-08-30T23:36:19;8.90;;;6.37;;
27895;SDS011;15241;48.374;10.876;2022-08-30T23:41:18;14.90;;;6.25;;
27895;SDS011;15241;48.374;10.876;2022-08-30T23:46:17;9.43;;;6.37;;
27895;SDS011;15241;48.374;10.876;2022-08-30T23:51:16;7.95;;;6.30;;
27895;SDS011;15241;48.374;10.876;2022-08-30T23:56:15;6.62;;;5.92;;
